Time,TemperatureF,DewpointF,PressureIn,WindDirection,WindDirectionDegrees,WindSpeedMPH,WindSpeedGustMPH,Humidity,HourlyPrecipIn,Conditions,Clouds,dailyrainin,SoftwareType,DateUTC
2013-07-18 00:03:00,72.7,62.7,29.47,West,270,1.3,2.7,71,0.00,,---,0.00,VWS V14.01,2013-07-17 22:03:00,
2013-07-18 00:08:00,72.7,62.7,29.47,WNW,292,0.0,2.7,71,0.00,,---,0.00,VWS V14.01,2013-07-17 22:08:00,
2013-07-18 00:13:00,72.5,62.6,29.47,NW,315,1.1,1.6,71,0.00,,---,0.00,VWS V14.01,2013-07-17 22:13:00,
2013-07-18 00:18:00,72.3,62.4,29.47,WNW,292,1.6,2.2,71,0.00,,---,0.00,VWS V14.01,2013-07-17 22:18:00,
2013-07-18 00:23:00,72.1,62.2,29.47,WNW,292,0.0,2.0,71,0.00,,---,0.00,VWS V14.01,2013-07-17 22:23:00,
2013-07-18 00:28:00,72.1,62.2,29.47,NW,315,2.0,2.5,71,0.00,,---,0.00,VWS V14.01,2013-07-17 22:28:00,
2013-07-18 00:33:00,72.1,62.2,29.50,NW,315,0.0,1.1,71,0.00,,---,0.00,VWS V14.01,2013-07-17 22:33:00,
2013-07-18 00:38:00,72.0,62.0,29.50,West,270,0.0,3.1,71,0.00,,---,0.00,VWS V14.01,2013-07-17 22:38:00,
2013-07-18 00:43:00,72.0,61.7,29.50,SSE,158,0.0,1.6,70,0.00,,---,0.00,VWS V14.01,2013-07-17 22:43:00,
2013-07-18 00:48:00,72.0,61.7,29.50,South,180,1.1,2.7,70,0.00,,---,0.00,VWS V14.01,2013-07-17 22:48:00,
2013-07-18 00:53:00,72.0,61.7,29.50,SSW,202,2.0,3.1,70,0.00,,---,0.00,VWS V14.01,2013-07-17 22:53:00,
2013-07-18 00:58:00,72.0,61.7,29.50,SSW,202,2.0,3.1,70,0.00,,---,0.00,VWS V14.01,2013-07-17 22:58:00,
2013-07-18 01:03:00,72.0,61.2,29.50,SW,225,0.0,0.9,69,0.00,,---,0.00,VWS V14.01,2013-07-17 23:03:00,
2013-07-18 01:08:00,71.6,61.3,29.50,West,270,0.0,2.7,70,0.00,,---,0.00,VWS V14.01,2013-07-17 23:08:00,
2013-07-18 01:13:00,71.4,61.5,29.50,West,270,0.0,0.0,71,0.00,,---,0.00,VWS V14.01,2013-07-17 23:13:00,
2013-07-18 01:18:00,71.2,61.4,29.47,NW,315,1.1,2.5,71,0.00,,---,0.00,VWS V14.01,2013-07-17 23:18:00,
2013-07-18 01:23:00,71.1,61.2,29.47,NW,315,0.9,0.9,71,0.00,,---,0.00,VWS V14.01,2013-07-17 23:23:00,
2013-07-18 01:28:00,70.9,61.0,29.47,West,270,1.3,2.5,71,0.00,,---,0.00,VWS V14.01,2013-07-17 23:28:00,
2013-07-18 01:33:00,70.7,61.6,29.47,West,270,1.6,3.4,73,0.00,,---,0.00,VWS V14.01,2013-07-17 23:33:00,
2013-07-18 01:38:00,70.7,61.2,29.47,NW,315,2.5,3.4,72,0.00,,---,0.00,VWS V14.01,2013-07-17 23:38:00,
2013-07-18 01:43:00,70.7,61.2,29.47,West,270,1.3,3.6,72,0.00,,---,0.00,VWS V14.01,2013-07-17 23:43:00,
2013-07-18 01:48:00,71.1,61.6,29.47,WNW,292,0.9,3.6,72,0.00,,---,0.00,VWS V14.01,2013-07-17 23:48:00,
2013-07-18 01:53:00,71.1,61.2,29.47,WNW,292,3.1,4.3,71,0.00,,---,0.00,VWS V14.01,2013-07-17 23:53:00,
2013-07-18 01:58:00,71.2,61.0,29.47,NNW,338,0.9,4.3,70,0.00,,---,0.00,VWS V14.01,2013-07-17 23:58:00,
2013-07-18 02:03:00,71.4,60.7,29.50,West,270,1.3,2.7,69,0.00,,---,0.00,VWS V14.01,2013-07-18 00:03:00,
2013-07-18 02:16:00,69.1,57.7,29.50,NNE,22,2.7,14.8,67,0.04,,---,0.04,VWS V14.01,2013-07-18 00:16:00,
2013-07-18 02:21:00,67.5,57.7,29.50,NW,315,3.4,3.8,71,0.13,,---,0.13,VWS V14.01,2013-07-18 00:21:00,
2013-07-18 02:26:00,66.6,58.4,29.50,WNW,292,3.1,5.6,75,0.13,,---,0.13,VWS V14.01,2013-07-18 00:26:00,
2013-07-18 02:31:00,66.0,58.6,29.47,West,270,2.5,2.9,77,0.13,,---,0.13,VWS V14.01,2013-07-18 00:31:00,
2013-07-18 02:36:00,65.7,59.7,29.47,West,270,2.9,4.9,81,0.13,,---,0.13,VWS V14.01,2013-07-18 00:36:00,
2013-07-18 02:41:00,65.3,60.3,29.47,West,270,0.0,2.0,84,0.13,,---,0.13,VWS V14.01,2013-07-18 00:41:00,
2013-07-18 02:46:00,65.1,60.2,29.50,SSW,202,3.1,4.3,84,0.13,,---,0.13,VWS V14.01,2013-07-18 00:46:00,
2013-07-18 02:51:00,64.6,59.0,29.50,SE,135,5.4,5.4,82,0.13,,---,0.13,VWS V14.01,2013-07-18 00:51:00,
2013-07-18 02:56:00,64.6,60.3,29.50,South,180,2.7,5.4,86,0.13,,---,0.13,VWS V14.01,2013-07-18 00:56:00,
2013-07-18 03:01:00,64.6,60.6,29.47,NNW,338,2.7,2.7,87,0.13,,---,0.13,VWS V14.01,2013-07-18 01:01:00,
2013-07-18 03:06:00,64.8,60.8,29.47,NW,315,3.8,6.9,87,0.13,,---,0.13,VWS V14.01,2013-07-18 01:06:00,
2013-07-18 03:11:00,64.9,61.3,29.47,NNE,22,2.7,2.7,88,0.13,,---,0.13,VWS V14.01,2013-07-18 01:11:00,
2013-07-18 03:16:00,64.9,61.0,29.47,WNW,292,2.9,4.7,87,0.13,,---,0.13,VWS V14.01,2013-07-18 01:16:00,
2013-07-18 03:21:00,64.9,61.0,29.47,West,270,1.6,2.5,87,0.04,,---,0.13,VWS V14.01,2013-07-18 01:21:00,
2013-07-18 03:26:00,65.1,61.5,29.47,WNW,292,0.9,3.8,88,0.04,,---,0.13,VWS V14.01,2013-07-18 01:26:00,
2013-07-18 03:31:00,64.9,61.9,29.47,WNW,292,2.0,2.2,90,0.00,,---,0.13,VWS V14.01,2013-07-18 01:31:00,
2013-07-18 03:36:00,64.8,61.5,29.47,WNW,292,2.2,4.3,89,0.00,,---,0.13,VWS V14.01,2013-07-18 01:36:00,
2013-07-18 03:41:00,64.8,61.5,29.47,WNW,292,3.4,3.6,89,0.00,,---,0.13,VWS V14.01,2013-07-18 01:41:00,
2013-07-18 03:46:00,64.6,61.3,29.47,SSW,202,7.4,7.4,89,0.00,,---,0.13,VWS V14.01,2013-07-18 01:46:00,
2013-07-18 03:51:00,64.8,61.8,29.47,West,270,3.6,6.0,90,0.00,,---,0.13,VWS V14.01,2013-07-18 01:51:00,
2013-07-18 03:56:00,64.8,61.8,29.47,WNW,292,2.9,6.0,90,0.00,,---,0.13,VWS V14.01,2013-07-18 01:56:00,
2013-07-18 04:01:00,64.8,61.8,29.50,North,0,2.2,4.3,90,0.00,,---,0.13,VWS V14.01,2013-07-18 02:01:00,
2013-07-18 04:06:00,64.9,61.6,29.50,West,270,3.1,9.8,89,0.00,,---,0.13,VWS V14.01,2013-07-18 02:06:00,
2013-07-18 04:11:00,65.1,61.2,29.50,West,270,4.9,8.5,87,0.00,,---,0.13,VWS V14.01,2013-07-18 02:11:00,
2013-07-18 04:16:00,65.5,60.9,29.50,West,270,4.9,8.5,85,0.00,,---,0.13,VWS V14.01,2013-07-18 02:16:00,
2013-07-18 04:21:00,65.7,60.7,29.50,West,270,4.0,5.4,84,0.00,,---,0.13,VWS V14.01,2013-07-18 02:21:00,
2013-07-18 04:26:00,65.7,60.7,29.50,North,0,1.6,5.8,84,0.00,,---,0.13,VWS V14.01,2013-07-18 02:26:00,
2013-07-18 04:31:00,65.7,61.0,29.47,West,270,2.0,4.7,85,0.00,,---,0.13,VWS V14.01,2013-07-18 02:31:00,
2013-07-18 04:36:00,65.3,60.7,29.47,West,270,2.7,4.7,85,0.00,,---,0.13,VWS V14.01,2013-07-18 02:36:00,
2013-07-18 04:41:00,65.1,60.8,29.47,SW,225,1.3,3.1,86,0.00,,---,0.13,VWS V14.01,2013-07-18 02:41:00,
2013-07-18 04:46:00,65.1,60.8,29.47,West,270,3.1,3.4,86,0.00,,---,0.13,VWS V14.01,2013-07-18 02:46:00,
2013-07-18 04:51:00,65.3,61.3,29.47,West,270,1.6,1.6,87,0.00,,---,0.13,VWS V14.01,2013-07-18 02:51:00,
2013-07-18 04:56:00,65.3,61.7,29.47,SW,225,1.1,1.6,88,0.00,,---,0.13,VWS V14.01,2013-07-18 02:56:00,
2013-07-18 05:01:00,65.1,61.8,29.47,WSW,248,2.5,2.5,89,0.00,,---,0.13,VWS V14.01,2013-07-18 03:01:00,
2013-07-18 05:06:00,65.1,62.4,29.47,SW,225,3.4,3.4,91,0.00,,---,0.13,VWS V14.01,2013-07-18 03:06:00,
2013-07-18 05:11:00,64.9,61.9,29.47,SSE,158,3.1,3.6,90,0.00,,---,0.13,VWS V14.01,2013-07-18 03:11:00,
2013-07-18 05:16:00,64.8,61.8,29.50,SSW,202,2.9,4.0,90,0.00,,---,0.13,VWS V14.01,2013-07-18 03:16:00,
2013-07-18 05:21:00,64.8,61.8,29.50,West,270,1.6,4.3,90,0.00,,---,0.13,VWS V14.01,2013-07-18 03:21:00,
2013-07-18 05:26:00,64.8,62.1,29.50,SW,225,1.3,4.3,91,0.00,,---,0.13,VWS V14.01,2013-07-18 03:26:00,
2013-07-18 05:31:00,64.8,62.1,29.50,SW,225,0.0,0.0,91,0.00,,---,0.13,VWS V14.01,2013-07-18 03:31:00,
2013-07-18 05:36:00,65.1,62.7,29.50,WSW,248,0.0,0.0,92,0.00,,---,0.13,VWS V14.01,2013-07-18 03:36:00,
2013-07-18 05:41:00,64.9,62.6,29.50,NW,315,0.0,2.0,92,0.00,,---,0.13,VWS V14.01,2013-07-18 03:41:00,
2013-07-18 05:46:00,65.1,62.7,29.50,NW,315,0.0,2.0,92,0.00,,---,0.13,VWS V14.01,2013-07-18 03:46:00,
2013-07-18 05:51:00,65.1,63.0,29.50,NW,315,0.0,0.0,93,0.00,,---,0.13,VWS V14.01,2013-07-18 03:51:00,
2013-07-18 05:56:00,65.1,63.0,29.50,NW,315,0.0,0.0,93,0.00,,---,0.13,VWS V14.01,2013-07-18 03:56:00,
2013-07-18 06:01:00,65.3,63.5,29.50,NW,315,0.0,0.0,94,0.00,,---,0.13,VWS V14.01,2013-07-18 04:01:00,
2013-07-18 06:06:00,65.7,64.2,29.50,NW,315,0.0,0.0,95,0.00,,---,0.13,VWS V14.01,2013-07-18 04:06:00,
2013-07-18 06:10:00,65.7,64.2,29.50,WNW,292,0.0,0.0,95,0.00,,---,0.13,VWS V14.01,2013-07-18 04:10:00,
2013-07-18 06:16:00,65.7,63.9,29.50,WNW,292,0.0,0.0,94,0.00,,---,0.13,VWS V14.01,2013-07-18 04:16:00,
2013-07-18 06:21:00,65.7,63.9,29.50,North,0,2.5,2.5,94,0.00,,---,0.13,VWS V14.01,2013-07-18 04:21:00,
2013-07-18 06:26:00,65.7,63.9,29.50,NW,315,0.0,3.6,94,0.00,,---,0.13,VWS V14.01,2013-07-18 04:26:00,
2013-07-18 06:30:00,65.7,63.9,29.53,NW,315,0.0,3.6,94,0.00,,---,0.13,VWS V14.01,2013-07-18 04:30:00,
2013-07-18 06:36:00,65.8,64.1,29.53,West,270,1.6,2.2,94,0.00,,---,0.13,VWS V14.01,2013-07-18 04:36:00,
2013-07-18 06:41:00,66.0,64.2,29.53,West,270,2.0,5.6,94,0.04,,---,0.17,VWS V14.01,2013-07-18 04:41:00,
2013-07-18 06:46:00,66.0,64.2,29.47,WNW,292,2.5,5.6,94,0.08,,---,0.21,VWS V14.01,2013-07-18 04:46:00,
2013-07-18 06:51:00,65.7,63.9,29.47,WNW,292,4.0,5.4,94,0.08,,---,0.21,VWS V14.01,2013-07-18 04:51:00,
2013-07-18 06:56:00,65.8,63.8,29.47,West,270,2.9,6.0,93,0.08,,---,0.21,VWS V14.01,2013-07-18 04:56:00,
2013-07-18 07:01:00,66.0,62.7,29.47,NW,315,2.5,6.9,89,0.08,,---,0.21,VWS V14.01,2013-07-18 05:01:00,
2013-07-18 07:06:00,66.0,61.4,29.47,SW,225,3.6,7.8,85,0.08,,---,0.21,VWS V14.01,2013-07-18 05:06:00,
2013-07-18 07:11:00,66.0,60.4,29.47,SW,225,3.6,3.6,82,0.08,,---,0.21,VWS V14.01,2013-07-18 05:11:00,
2013-07-18 07:16:00,65.7,59.7,29.50,North,0,4.0,8.5,81,0.08,,---,0.21,VWS V14.01,2013-07-18 05:16:00,
2013-07-18 07:21:00,65.7,60.4,29.50,WSW,248,2.2,3.1,83,0.12,,---,0.25,VWS V14.01,2013-07-18 05:21:00,
2013-07-18 07:26:00,65.5,60.9,29.50,WSW,248,2.2,7.4,85,0.12,,---,0.25,VWS V14.01,2013-07-18 05:26:00,
2013-07-18 07:31:00,64.9,59.3,29.50,WNW,292,5.6,7.6,82,0.16,,---,0.29,VWS V14.01,2013-07-18 05:31:00,
2013-07-18 07:37:00,64.9,59.0,29.50,SW,225,4.9,11.9,81,0.16,,---,0.29,VWS V14.01,2013-07-18 05:37:00,
2013-07-18 07:42:00,65.1,59.2,29.50,West,270,2.9,7.6,81,0.12,,---,0.29,VWS V14.01,2013-07-18 05:42:00,
2013-07-18 07:47:00,65.3,58.6,29.44,NW,315,3.1,7.6,79,0.12,,---,0.29,VWS V14.01,2013-07-18 05:47:00,
2013-07-18 07:52:00,65.5,58.8,29.44,NW,315,3.6,6.5,79,0.13,,---,0.34,VWS V14.01,2013-07-18 05:52:00,
2013-07-18 07:57:00,65.3,58.6,29.44,NE,45,4.9,7.4,79,0.13,,---,0.34,VWS V14.01,2013-07-18 05:57:00,
2013-07-18 08:02:00,65.3,59.0,29.44,SE,135,3.6,4.9,80,0.13,,---,0.34,VWS V14.01,2013-07-18 06:02:00,
2013-07-18 08:12:00,65.3,59.3,29.44,SW,225,2.5,3.1,81,0.13,,---,0.34,VWS V14.01,2013-07-18 06:12:00,
2013-07-18 08:17:00,64.8,59.1,29.44,WNW,292,0.0,3.1,82,0.13,,---,0.34,VWS V14.01,2013-07-18 06:17:00,
2013-07-18 08:22:00,64.9,60.0,29.44,West,270,7.6,7.6,84,0.13,,---,0.34,VWS V14.01,2013-07-18 06:22:00,
2013-07-18 08:27:00,64.6,59.3,29.44,WNW,292,4.0,7.6,83,0.13,,---,0.34,VWS V14.01,2013-07-18 06:27:00,
2013-07-18 08:32:00,64.8,59.8,29.44,West,270,5.4,6.3,84,0.05,,---,0.34,VWS V14.01,2013-07-18 06:32:00,
2013-07-18 08:37:00,64.8,59.5,29.44,West,270,3.4,7.8,83,0.05,,---,0.34,VWS V14.01,2013-07-18 06:37:00,
2013-07-18 08:42:00,64.9,60.0,29.44,West,270,2.7,4.3,84,0.05,,---,0.34,VWS V14.01,2013-07-18 06:42:00,
2013-07-18 08:47:00,65.1,60.5,29.41,NW,315,2.9,7.4,85,0.05,,---,0.34,VWS V14.01,2013-07-18 06:47:00,
2013-07-18 08:52:00,65.7,62.0,29.41,West,270,2.7,2.7,88,0.00,,---,0.34,VWS V14.01,2013-07-18 06:52:00,
2013-07-18 08:57:00,66.0,62.0,29.41,West,270,1.6,3.8,87,0.00,,---,0.34,VWS V14.01,2013-07-18 06:57:00,
2013-07-18 09:02:00,66.7,63.4,29.41,WSW,248,0.0,3.8,89,0.00,,---,0.34,VWS V14.01,2013-07-18 07:02:00,
2013-07-18 09:07:00,67.1,63.4,29.41,NNW,338,0.0,3.8,88,0.00,,---,0.34,VWS V14.01,2013-07-18 07:07:00,
2013-07-18 09:12:00,67.3,63.3,29.41,NNE,22,1.1,1.3,87,0.00,,---,0.34,VWS V14.01,2013-07-18 07:12:00,
2013-07-18 09:17:00,68.0,63.0,29.44,SE,135,3.1,6.0,84,0.00,,---,0.34,VWS V14.01,2013-07-18 07:17:00,
2013-07-18 09:22:00,68.0,62.3,29.44,East,90,1.3,4.3,82,0.00,,---,0.34,VWS V14.01,2013-07-18 07:22:00,
2013-07-18 09:32:00,68.0,62.3,29.44,NE,45,3.8,3.8,82,0.00,,---,0.34,VWS V14.01,2013-07-18 07:32:00,
2013-07-18 09:37:00,68.0,62.3,29.44,SSE,158,3.6,4.5,82,0.00,,---,0.34,VWS V14.01,2013-07-18 07:37:00,
2013-07-18 09:42:00,69.6,61.3,29.44,East,90,4.0,4.0,75,0.00,,---,0.34,VWS V14.01,2013-07-18 07:42:00,
2013-07-18 09:47:00,69.8,60.4,29.44,East,90,2.7,4.0,72,0.00,,---,0.34,VWS V14.01,2013-07-18 07:47:00,
2013-07-18 09:52:00,70.0,60.5,29.44,NNE,22,2.5,2.5,72,0.00,,---,0.34,VWS V14.01,2013-07-18 07:52:00,
2013-07-18 09:57:00,70.5,61.1,29.44,NE,45,0.0,2.9,72,0.00,,---,0.34,VWS V14.01,2013-07-18 07:57:00,
2013-07-18 10:02:00,70.9,60.6,29.44,NNE,22,1.6,2.5,70,0.00,,---,0.34,VWS V14.01,2013-07-18 08:02:00,
2013-07-18 10:07:00,71.4,60.7,29.44,ENE,68,0.0,3.1,69,0.00,,---,0.34,VWS V14.01,2013-07-18 08:07:00,
2013-07-18 10:12:00,71.4,58.6,29.44,SW,225,1.1,2.0,64,0.00,,---,0.34,VWS V14.01,2013-07-18 08:12:00,
2013-07-18 10:17:00,71.8,60.2,29.47,SE,135,3.1,3.1,67,0.00,,---,0.34,VWS V14.01,2013-07-18 08:17:00,
2013-07-18 10:22:00,72.1,61.0,29.47,NNE,22,0.0,1.1,68,0.00,,---,0.34,VWS V14.01,2013-07-18 08:22:00,
2013-07-18 10:27:00,73.2,62.0,29.47,NNW,338,0.0,3.1,68,0.00,,---,0.34,VWS V14.01,2013-07-18 08:27:00,
2013-07-18 10:32:00,73.6,60.2,29.47,West,270,0.9,2.0,63,0.00,,---,0.34,VWS V14.01,2013-07-18 08:32:00,
2013-07-18 10:37:00,74.5,62.0,29.47,West,270,0.9,2.5,65,0.00,,---,0.34,VWS V14.01,2013-07-18 08:37:00,
2013-07-18 10:42:00,75.2,62.6,29.47,NW,315,2.2,3.1,65,0.00,,---,0.34,VWS V14.01,2013-07-18 08:42:00,
2013-07-18 10:47:00,75.6,61.6,29.47,West,270,0.0,3.1,62,0.00,,---,0.34,VWS V14.01,2013-07-18 08:47:00,
2013-07-18 10:52:00,76.3,61.4,29.47,West,270,2.7,4.3,60,0.00,,---,0.34,VWS V14.01,2013-07-18 08:52:00,
2013-07-18 10:57:00,75.9,59.1,29.47,West,270,2.0,5.8,56,0.00,,---,0.34,VWS V14.01,2013-07-18 08:57:00,
2013-07-18 11:02:00,76.3,58.9,29.44,West,270,3.1,4.0,55,0.00,,---,0.34,VWS V14.01,2013-07-18 09:02:00,
2013-07-18 11:07:00,76.1,53.8,29.44,WSW,248,4.0,6.3,46,0.00,,---,0.34,VWS V14.01,2013-07-18 09:07:00,
2013-07-18 11:12:00,76.5,56.5,29.44,West,270,3.1,3.4,50,0.00,,---,0.34,VWS V14.01,2013-07-18 09:12:00,
2013-07-18 11:17:00,77.0,53.4,29.47,West,270,3.6,4.9,44,0.00,,---,0.34,VWS V14.01,2013-07-18 09:17:00,
2013-07-18 11:22:00,77.5,52.7,29.47,WSW,248,1.1,2.7,42,0.00,,---,0.34,VWS V14.01,2013-07-18 09:22:00,
2013-07-18 11:27:00,78.1,52.5,29.47,NNW,338,1.1,2.9,41,0.00,,---,0.34,VWS V14.01,2013-07-18 09:27:00,
2013-07-18 11:32:00,79.2,53.5,29.47,NNE,22,2.5,2.5,41,0.00,,---,0.34,VWS V14.01,2013-07-18 09:32:00,
2013-07-18 11:37:00,79.9,50.6,29.47,NW,315,2.5,3.6,36,0.00,,---,0.34,VWS V14.01,2013-07-18 09:37:00,
2013-07-18 11:42:00,80.2,50.9,29.47,NW,315,2.5,2.5,36,0.00,,---,0.34,VWS V14.01,2013-07-18 09:42:00,
2013-07-18 11:48:00,80.8,52.1,29.44,NE,45,0.9,2.5,37,0.00,,---,0.34,VWS V14.01,2013-07-18 09:48:00,
2013-07-18 11:53:00,81.5,48.0,29.44,NE,45,0.9,3.6,31,0.00,,---,0.34,VWS V14.01,2013-07-18 09:53:00,
2013-07-18 11:58:00,81.7,47.3,29.44,NE,45,3.4,4.5,30,0.00,,---,0.34,VWS V14.01,2013-07-18 09:58:00,
2013-07-18 12:03:00,82.0,49.3,29.44,ESE,112,2.5,3.6,32,0.00,,---,0.34,VWS V14.01,2013-07-18 10:03:00,
2013-07-18 12:08:00,82.2,49.5,29.44,SE,135,2.5,3.6,32,0.00,,---,0.34,VWS V14.01,2013-07-18 10:08:00,
2013-07-18 12:13:00,82.4,49.6,29.44,South,180,1.6,3.1,32,0.00,,---,0.34,VWS V14.01,2013-07-18 10:13:00,
2013-07-18 12:18:00,82.6,48.0,29.44,NNE,22,1.6,3.6,30,0.00,,---,0.34,VWS V14.01,2013-07-18 10:18:00,
2013-07-18 12:23:00,82.9,47.5,29.44,SW,225,2.0,2.2,29,0.00,,---,0.34,VWS V14.01,2013-07-18 10:23:00,
2013-07-18 12:28:00,83.1,47.6,29.44,ENE,68,3.4,3.8,29,0.00,,---,0.34,VWS V14.01,2013-07-18 10:28:00,
2013-07-18 12:33:00,83.3,47.8,29.44,SSW,202,2.5,4.3,29,0.00,,---,0.34,VWS V14.01,2013-07-18 10:33:00,
2013-07-18 12:38:00,83.5,47.9,29.44,NE,45,4.3,4.3,29,0.00,,---,0.34,VWS V14.01,2013-07-18 10:38:00,
2013-07-18 12:43:00,83.5,47.9,29.44,ESE,112,3.8,7.8,29,0.00,,---,0.34,VWS V14.01,2013-07-18 10:43:00,
2013-07-18 12:48:00,83.8,49.1,29.44,ESE,112,1.3,7.8,30,0.00,,---,0.34,VWS V14.01,2013-07-18 10:48:00,
2013-07-18 12:53:00,83.7,48.1,29.44,SE,135,5.6,5.6,29,0.00,,---,0.34,VWS V14.01,2013-07-18 10:53:00,
2013-07-18 12:58:00,83.8,48.2,29.44,East,90,2.9,5.6,29,0.00,,---,0.34,VWS V14.01,2013-07-18 10:58:00,
2013-07-18 13:03:00,84.0,48.4,29.41,NE,45,2.7,4.5,29,0.00,,---,0.34,VWS V14.01,2013-07-18 11:03:00,
2013-07-18 13:08:00,84.2,48.5,29.41,South,180,2.9,4.9,29,0.00,,---,0.34,VWS V14.01,2013-07-18 11:08:00,
2013-07-18 13:13:00,84.4,49.6,29.41,West,270,1.6,3.1,30,0.00,,---,0.34,VWS V14.01,2013-07-18 11:13:00,
2013-07-18 13:18:00,85.1,49.3,29.41,WNW,292,1.3,3.4,29,0.00,,---,0.34,VWS V14.01,2013-07-18 11:18:00,
2013-07-18 13:23:00,84.9,48.2,29.41,West,270,10.7,10.7,28,0.00,,---,0.34,VWS V14.01,2013-07-18 11:23:00,
2013-07-18 13:32:00,84.9,49.2,29.44,West,270,8.1,8.5,29,0.00,,---,0.34,VWS V14.01,2013-07-18 11:32:00,
2013-07-18 13:37:00,85.1,49.3,29.44,North,0,3.4,8.5,29,0.00,,---,0.34,VWS V14.01,2013-07-18 11:37:00,
2013-07-18 13:42:00,84.9,49.2,29.44,WNW,292,7.2,7.2,29,0.00,,---,0.34,VWS V14.01,2013-07-18 11:42:00,
2013-07-18 13:47:00,85.3,49.5,29.44,West,270,3.1,7.4,29,0.00,,---,0.34,VWS V14.01,2013-07-18 11:47:00,
2013-07-18 13:52:00,85.6,49.8,29.44,SSE,158,2.5,5.8,29,0.00,,---,0.34,VWS V14.01,2013-07-18 11:52:00,
2013-07-18 13:57:00,85.3,49.5,29.44,SW,225,2.2,8.7,29,0.00,,---,0.34,VWS V14.01,2013-07-18 11:57:00,
2013-07-18 14:02:00,85.6,49.8,29.44,West,270,5.8,11.0,29,0.00,,---,0.34,VWS V14.01,2013-07-18 12:02:00,
2013-07-18 14:07:00,85.6,49.8,29.44,WNW,292,3.6,11.0,29,0.00,,---,0.34,VWS V14.01,2013-07-18 12:07:00,
2013-07-18 14:12:00,85.3,49.5,29.44,SW,225,7.2,7.8,29,0.00,,---,0.34,VWS V14.01,2013-07-18 12:12:00,
2013-07-18 14:17:00,85.1,49.3,29.44,NNW,338,1.1,8.7,29,0.00,,---,0.34,VWS V14.01,2013-07-18 12:17:00,
2013-07-18 14:22:00,85.6,49.8,29.44,North,0,2.5,2.5,29,0.00,,---,0.34,VWS V14.01,2013-07-18 12:22:00,
2013-07-18 14:27:00,86.0,49.1,29.44,South,180,2.7,6.3,28,0.00,,---,0.34,VWS V14.01,2013-07-18 12:27:00,
2013-07-18 14:32:00,85.8,49.9,29.44,WSW,248,5.4,10.7,29,0.00,,---,0.34,VWS V14.01,2013-07-18 12:32:00,
2013-07-18 14:37:00,85.6,49.8,29.44,ESE,112,6.0,10.7,29,0.00,,---,0.34,VWS V14.01,2013-07-18 12:37:00,
2013-07-18 14:42:00,85.6,49.8,29.44,WSW,248,4.0,5.8,29,0.00,,---,0.34,VWS V14.01,2013-07-18 12:42:00,
2013-07-18 14:47:00,85.6,49.8,29.41,ESE,112,3.8,5.8,29,0.00,,---,0.34,VWS V14.01,2013-07-18 12:47:00,
2013-07-18 14:52:00,86.2,50.2,29.41,East,90,3.8,6.3,29,0.00,,---,0.34,VWS V14.01,2013-07-18 12:52:00,
2013-07-18 14:57:00,85.8,50.8,29.41,ESE,112,9.8,12.5,30,0.00,,---,0.34,VWS V14.01,2013-07-18 12:57:00,
2013-07-18 15:02:00,84.7,50.8,29.41,South,180,10.7,10.7,31,0.00,,---,0.34,VWS V14.01,2013-07-18 13:02:00,
2013-07-18 15:17:00,82.4,50.4,29.41,East,90,5.4,12.3,33,0.00,,---,0.34,VWS V14.01,2013-07-18 13:17:00,
2013-07-18 15:22:00,82.0,51.7,29.41,East,90,8.1,8.1,35,0.00,,---,0.34,VWS V14.01,2013-07-18 13:22:00,
2013-07-18 15:27:00,81.5,52.7,29.41,ESE,112,7.6,9.8,37,0.00,,---,0.34,VWS V14.01,2013-07-18 13:27:00,
2013-07-18 15:32:00,80.8,53.5,29.44,SE,135,1.6,5.6,39,0.00,,---,0.34,VWS V14.01,2013-07-18 13:32:00,
2013-07-18 15:37:00,80.2,53.8,29.44,ESE,112,2.5,5.6,40,0.00,,---,0.34,VWS V14.01,2013-07-18 13:37:00,
2013-07-18 15:42:00,79.9,53.4,29.44,SE,135,1.3,2.2,40,0.00,,---,0.34,VWS V14.01,2013-07-18 13:42:00,
2013-07-18 15:47:00,79.3,53.6,29.44,North,0,2.0,6.7,41,0.00,,---,0.34,VWS V14.01,2013-07-18 13:47:00,
2013-07-18 15:52:00,78.8,55.1,29.44,SW,225,1.1,4.0,44,0.00,,---,0.34,VWS V14.01,2013-07-18 13:52:00,
2013-07-18 16:01:00,77.9,59.9,29.47,SW,225,0.9,1.6,54,0.00,,---,0.34,VWS V14.01,2013-07-18 14:01:00,
2013-07-18 16:06:00,76.1,62.2,29.47,WSW,248,1.1,2.7,62,0.00,,---,0.34,VWS V14.01,2013-07-18 14:06:00,
2013-07-18 16:11:00,75.6,63.4,29.47,NNW,338,2.7,2.7,66,0.00,,---,0.34,VWS V14.01,2013-07-18 14:11:00,
2013-07-18 16:16:00,74.8,64.8,29.41,South,180,1.3,4.0,71,0.00,,---,0.34,VWS V14.01,2013-07-18 14:16:00,
2013-07-18 16:21:00,74.3,65.9,29.41,West,270,0.0,0.9,75,0.00,,---,0.34,VWS V14.01,2013-07-18 14:21:00,
2013-07-18 16:26:00,74.1,64.9,29.41,NW,315,0.0,1.3,73,0.00,,---,0.34,VWS V14.01,2013-07-18 14:26:00,
2013-07-18 16:31:00,74.3,66.6,29.47,WNW,292,1.3,2.7,77,0.00,,---,0.34,VWS V14.01,2013-07-18 14:31:00,
2013-07-18 16:36:00,74.3,66.2,29.47,West,270,2.9,4.0,76,0.00,,---,0.34,VWS V14.01,2013-07-18 14:36:00,
2013-07-18 16:41:00,75.0,66.6,29.47,NW,315,1.3,1.3,75,0.00,,---,0.34,VWS V14.01,2013-07-18 14:41:00,
2013-07-18 16:46:00,76.3,66.6,29.44,WNW,292,0.0,2.7,72,0.00,,---,0.34,VWS V14.01,2013-07-18 14:46:00,
2013-07-18 16:51:00,77.0,63.9,29.44,SW,225,1.1,2.0,64,0.00,,---,0.34,VWS V14.01,2013-07-18 14:51:00,
2013-07-18 16:56:00,77.0,61.6,29.44,WNW,292,6.0,8.5,59,0.00,,---,0.34,VWS V14.01,2013-07-18 14:56:00,
2013-07-18 17:01:00,77.0,63.0,29.44,WNW,292,4.9,5.8,62,0.00,,---,0.34,VWS V14.01,2013-07-18 15:01:00,
2013-07-18 17:06:00,77.4,63.3,29.44,WSW,248,7.8,7.8,62,0.00,,---,0.34,VWS V14.01,2013-07-18 15:06:00,
2013-07-18 17:11:00,76.8,64.6,29.44,SW,225,7.8,7.8,66,0.00,,---,0.34,VWS V14.01,2013-07-18 15:11:00,
2013-07-18 17:16:00,76.5,63.8,29.44,WSW,248,2.9,7.8,65,0.00,,---,0.34,VWS V14.01,2013-07-18 15:16:00,
2013-07-18 17:21:00,76.6,63.6,29.44,NE,45,4.0,5.4,64,0.00,,---,0.34,VWS V14.01,2013-07-18 15:21:00,
2013-07-18 17:26:00,76.8,62.8,29.44,NW,315,0.0,5.8,62,0.00,,---,0.34,VWS V14.01,2013-07-18 15:26:00,
2013-07-18 17:31:00,76.5,62.0,29.41,WSW,248,2.0,6.0,61,0.00,,---,0.34,VWS V14.01,2013-07-18 15:31:00,
2013-07-18 17:36:00,76.6,61.7,29.41,West,270,2.7,6.0,60,0.00,,---,0.34,VWS V14.01,2013-07-18 15:36:00,
2013-07-18 17:41:00,76.8,61.4,29.41,West,270,1.6,5.4,59,0.00,,---,0.34,VWS V14.01,2013-07-18 15:41:00,
2013-07-18 17:46:00,77.7,62.3,29.41,WSW,248,1.1,5.6,59,0.00,,---,0.34,VWS V14.01,2013-07-18 15:46:00,
2013-07-18 17:51:00,77.9,61.0,29.41,SW,225,3.1,3.8,56,0.00,,---,0.34,VWS V14.01,2013-07-18 15:51:00,
2013-07-18 17:56:00,78.1,59.6,29.41,NW,315,2.7,8.1,53,0.00,,---,0.34,VWS V14.01,2013-07-18 15:56:00,
2013-07-18 18:01:00,78.1,58.5,29.41,West,270,0.9,2.9,51,0.00,,---,0.34,VWS V14.01,2013-07-18 16:01:00,
2013-07-18 18:06:00,77.9,58.3,29.41,WSW,248,2.5,3.8,51,0.00,,---,0.34,VWS V14.01,2013-07-18 16:06:00,
2013-07-18 18:11:00,77.7,58.2,29.41,SE,135,4.3,4.3,51,0.00,,---,0.34,VWS V14.01,2013-07-18 16:11:00,
2013-07-18 18:16:00,77.5,58.5,29.41,WNW,292,1.6,4.3,52,0.00,,---,0.34,VWS V14.01,2013-07-18 16:16:00,
2013-07-18 18:21:00,77.0,57.5,29.41,SW,225,0.0,2.5,51,0.00,,---,0.34,VWS V14.01,2013-07-18 16:21:00,
2013-07-18 18:26:00,77.0,58.6,29.41,SW,225,1.1,2.9,53,0.00,,---,0.34,VWS V14.01,2013-07-18 16:26:00,
2013-07-18 18:31:00,76.8,58.4,29.41,SE,135,1.6,4.3,53,0.00,,---,0.34,VWS V14.01,2013-07-18 16:31:00,
2013-07-18 18:36:00,76.6,59.3,29.41,SE,135,4.0,4.7,55,0.00,,---,0.34,VWS V14.01,2013-07-18 16:36:00,
2013-07-18 18:41:00,76.3,59.5,29.41,SSE,158,4.3,5.8,56,0.00,,---,0.34,VWS V14.01,2013-07-18 16:41:00,
2013-07-18 18:46:00,76.1,60.3,29.41,SE,135,2.2,5.8,58,0.00,,---,0.34,VWS V14.01,2013-07-18 16:46:00,
2013-07-18 18:51:00,75.9,60.1,29.41,SE,135,3.8,6.3,58,0.00,,---,0.34,VWS V14.01,2013-07-18 16:51:00,
2013-07-18 18:56:00,75.7,59.4,29.41,SE,135,1.6,6.3,57,0.00,,---,0.34,VWS V14.01,2013-07-18 16:56:00,
2013-07-18 19:01:00,75.7,59.0,29.41,South,180,2.9,5.6,56,0.00,,---,0.34,VWS V14.01,2013-07-18 17:01:00,
2013-07-18 19:06:00,76.1,59.3,29.41,SSE,158,1.3,5.6,56,0.00,,---,0.34,VWS V14.01,2013-07-18 17:06:00,
2013-07-18 19:11:00,76.3,58.9,29.41,SE,135,1.3,5.6,55,0.00,,---,0.34,VWS V14.01,2013-07-18 17:11:00,
2013-07-18 19:16:00,76.3,58.4,29.44,SE,135,4.7,5.6,54,0.00,,---,0.34,VWS V14.01,2013-07-18 17:16:00,
2013-07-18 19:21:00,76.3,58.4,29.44,SSE,158,1.6,3.4,54,0.00,,---,0.34,VWS V14.01,2013-07-18 17:21:00,
2013-07-18 19:26:00,76.5,58.6,29.44,WSW,248,4.0,4.7,54,0.00,,---,0.34,VWS V14.01,2013-07-18 17:26:00,
2013-07-18 19:31:00,76.5,58.6,29.41,WSW,248,3.4,3.6,54,0.00,,---,0.34,VWS V14.01,2013-07-18 17:31:00,
2013-07-18 19:36:00,76.5,58.6,29.41,West,270,2.0,4.0,54,0.00,,---,0.34,VWS V14.01,2013-07-18 17:36:00,
2013-07-18 19:41:00,76.6,58.2,29.41,South,180,2.9,3.4,53,0.00,,---,0.34,VWS V14.01,2013-07-18 17:41:00,
2013-07-18 19:47:00,76.8,58.4,29.44,East,90,1.1,3.4,53,0.00,,---,0.34,VWS V14.01,2013-07-18 17:47:00,
2013-07-18 19:52:00,77.0,58.0,29.44,SE,135,2.2,2.9,52,0.00,,---,0.34,VWS V14.01,2013-07-18 17:52:00,
2013-07-18 19:57:00,77.0,57.5,29.44,ESE,112,1.3,2.9,51,0.00,,---,0.34,VWS V14.01,2013-07-18 17:57:00,
2013-07-18 20:02:00,77.0,57.0,29.47,SSE,158,2.2,2.2,50,0.00,,---,0.34,VWS V14.01,2013-07-18 18:02:00,
2013-07-18 20:07:00,76.8,56.8,29.47,SSE,158,0.0,2.2,50,0.00,,---,0.34,VWS V14.01,2013-07-18 18:07:00,
2013-07-18 20:12:00,76.8,56.2,29.47,SW,225,1.6,3.4,49,0.00,,---,0.34,VWS V14.01,2013-07-18 18:12:00,
2013-07-18 20:17:00,76.8,56.8,29.47,SSW,202,2.0,3.4,50,0.00,,---,0.34,VWS V14.01,2013-07-18 18:17:00,
2013-07-18 20:22:00,76.6,56.6,29.47,SSW,202,0.0,0.0,50,0.00,,---,0.34,VWS V14.01,2013-07-18 18:22:00,
2013-07-18 20:27:00,76.8,56.8,29.47,West,270,0.0,1.3,50,0.00,,---,0.34,VWS V14.01,2013-07-18 18:27:00,
2013-07-18 20:32:00,76.6,56.1,29.44,West,270,0.0,0.0,49,0.00,,---,0.34,VWS V14.01,2013-07-18 18:32:00,
2013-07-18 20:37:00,76.6,56.6,29.44,West,270,0.0,0.0,50,0.00,,---,0.34,VWS V14.01,2013-07-18 18:37:00,
2013-07-18 20:42:00,76.6,56.6,29.44,West,270,0.0,0.0,50,0.00,,---,0.34,VWS V14.01,2013-07-18 18:42:00,
2013-07-18 20:47:00,76.5,57.5,29.44,West,270,0.0,0.0,52,0.00,,---,0.34,VWS V14.01,2013-07-18 18:47:00,
2013-07-18 20:52:00,75.4,56.0,29.44,West,270,0.0,1.3,51,0.00,,---,0.34,VWS V14.01,2013-07-18 18:52:00,
2013-07-18 20:57:00,75.4,56.5,29.44,West,270,0.0,1.3,52,0.00,,---,0.34,VWS V14.01,2013-07-18 18:57:00,
2013-07-18 21:02:00,75.0,57.3,29.41,West,270,0.0,0.0,54,0.00,,---,0.34,VWS V14.01,2013-07-18 19:02:00,
2013-07-18 21:07:00,74.5,56.8,29.41,West,270,2.2,2.5,54,0.00,,---,0.34,VWS V14.01,2013-07-18 19:07:00,
2013-07-18 21:12:00,74.5,56.8,29.41,SW,225,2.7,2.9,54,0.00,,---,0.34,VWS V14.01,2013-07-18 19:12:00,
2013-07-18 21:17:00,74.5,56.8,29.41,WSW,248,2.7,3.8,54,0.00,,---,0.34,VWS V14.01,2013-07-18 19:17:00,
2013-07-18 21:22:00,74.5,56.8,29.41,WSW,248,1.3,2.0,54,0.00,,---,0.34,VWS V14.01,2013-07-18 19:22:00,
2013-07-18 21:27:00,74.5,56.8,29.41,NE,45,1.1,2.7,54,0.00,,---,0.34,VWS V14.01,2013-07-18 19:27:00,
2013-07-18 21:32:00,74.5,56.8,29.44,South,180,1.1,1.6,54,0.00,,---,0.34,VWS V14.01,2013-07-18 19:32:00,
2013-07-18 21:37:00,74.5,56.8,29.44,WNW,292,3.4,3.4,54,0.00,,---,0.34,VWS V14.01,2013-07-18 19:37:00,
2013-07-18 21:42:00,72.9,60.8,29.44,WNW,292,3.6,3.6,66,0.00,,---,0.34,VWS V14.01,2013-07-18 19:42:00,
2013-07-18 21:47:00,72.1,61.0,29.47,NW,315,0.0,3.6,68,0.00,,---,0.34,VWS V14.01,2013-07-18 19:47:00,
2013-07-18 21:52:00,72.1,61.0,29.47,NNW,338,0.0,1.6,68,0.00,,---,0.34,VWS V14.01,2013-07-18 19:52:00,
2013-07-18 21:57:00,71.2,62.2,29.47,WNW,292,0.0,2.0,73,0.00,,---,0.34,VWS V14.01,2013-07-18 19:57:00,
2013-07-18 22:02:00,71.1,61.6,29.41,WNW,292,0.0,0.0,72,0.00,,---,0.34,VWS V14.01,2013-07-18 20:02:00,
2013-07-18 22:07:00,70.9,60.6,29.41,NW,315,0.0,1.1,70,0.00,,---,0.34,VWS V14.01,2013-07-18 20:07:00,
2013-07-18 22:12:00,70.9,61.8,29.41,NW,315,0.0,1.3,73,0.00,,---,0.34,VWS V14.01,2013-07-18 20:12:00,
2013-07-18 22:17:00,70.3,61.7,29.44,WSW,248,0.0,1.3,74,0.00,,---,0.34,VWS V14.01,2013-07-18 20:17:00,
2013-07-18 22:22:00,70.2,61.1,29.44,SW,225,0.0,0.0,73,0.00,,---,0.34,VWS V14.01,2013-07-18 20:22:00,
2013-07-18 22:27:00,70.2,61.1,29.44,SW,225,0.0,0.0,73,0.00,,---,0.34,VWS V14.01,2013-07-18 20:27:00,
2013-07-18 22:32:00,70.0,62.1,29.41,West,270,1.1,2.0,76,0.00,,---,0.34,VWS V14.01,2013-07-18 20:32:00,
2013-07-18 22:37:00,69.6,62.5,29.41,West,270,0.0,2.9,78,0.00,,---,0.34,VWS V14.01,2013-07-18 20:37:00,
2013-07-18 22:42:00,69.4,62.3,29.41,West,270,0.0,0.0,78,0.00,,---,0.34,VWS V14.01,2013-07-18 20:42:00,
2013-07-18 22:47:00,69.3,61.8,29.44,West,270,0.0,0.0,77,0.00,,---,0.34,VWS V14.01,2013-07-18 20:47:00,
2013-07-18 22:52:00,69.1,61.9,29.44,WNW,292,1.1,2.0,78,0.00,,---,0.34,VWS V14.01,2013-07-18 20:52:00,
2013-07-18 22:57:00,68.7,61.6,29.44,WNW,292,1.3,2.5,78,0.00,,---,0.34,VWS V14.01,2013-07-18 20:57:00,
2013-07-18 23:02:00,68.7,62.7,29.44,WNW,292,0.0,0.0,81,0.00,,---,0.34,VWS V14.01,2013-07-18 21:02:00,
2013-07-18 23:07:00,68.5,62.1,29.44,WNW,292,1.6,1.6,80,0.00,,---,0.34,VWS V14.01,2013-07-18 21:07:00,
2013-07-18 23:12:00,68.4,62.3,29.44,WNW,292,0.0,1.6,81,0.00,,---,0.34,VWS V14.01,2013-07-18 21:12:00,
2013-07-18 23:17:00,68.4,62.0,29.44,WNW,292,0.0,1.6,80,0.00,,---,0.34,VWS V14.01,2013-07-18 21:17:00,
2013-07-18 23:22:00,68.2,61.8,29.44,WNW,292,1.1,2.0,80,0.00,,---,0.34,VWS V14.01,2013-07-18 21:22:00,
2013-07-18 23:27:00,68.2,61.8,29.44,WNW,292,0.0,2.0,80,0.00,,---,0.34,VWS V14.01,2013-07-18 21:27:00,
2013-07-18 23:32:00,68.0,61.6,29.44,WNW,292,0.0,0.9,80,0.00,,---,0.34,VWS V14.01,2013-07-18 21:32:00,
2013-07-18 23:37:00,67.8,61.8,29.44,WNW,292,1.3,1.3,81,0.00,,---,0.34,VWS V14.01,2013-07-18 21:37:00,
2013-07-18 23:42:00,67.6,61.6,29.44,WNW,292,0.0,0.0,81,0.00,,---,0.34,VWS V14.01,2013-07-18 21:42:00,
2013-07-18 23:47:00,67.5,61.4,29.44,WNW,292,0.0,2.2,81,0.00,,---,0.34,VWS V14.01,2013-07-18 21:47:00,
2013-07-18 23:52:00,67.5,61.4,29.44,WNW,292,0.0,0.0,81,0.00,,---,0.34,VWS V14.01,2013-07-18 21:52:00,
2013-07-18 23:57:00,67.3,61.3,29.44,WNW,292,2.5,2.7,81,0.00,,---,0.34,VWS V14.01,2013-07-18 21:57:00,